MMCS/CJS METAR and TAF weather

Enter ICAO airport designator
Station Type Date Time Source
MMCS METAR 2020/06/05 02:40 UTC NOAA

MMCS 050240Z 10003KT 10SM FEW050CB SCT160 BKN220 35/03 A2989 RMK SLP982 55000 963 8/328


Station Type Date Time Source
MMCS Decoded METAR 2020/06/05 02:40 UTC NOAA

Ciudad Juarez International , Mexico (MMCS) 31-38N 106-26W
Jun 04, 2020 - 10:40 PM EDT / 2020.06.05 0240 UTC
Wind: from the E (100 degrees) at 3 MPH (3 KT):0
Visibility: 10 mile(s):0
Sky conditions: mostly cloudy
Weather: Cumulonimbus clouds observed
Temperature: 95 F (35 C)
Dew Point: 37 F (3 C)
Relative Humidity: 13%
Pressure (altimeter): 29.89 in. Hg (1012 hPa)
Pressure tendency: 0.00 inches (0.0 hPa) lower than three hours ago
ob: MMCS 050240Z 10003KT 10SM FEW050CB SCT160 BKN220 35/03 A2989 RMK SLP982 55000 963 8/328
cycle: 2

Station Type Date Time Source
MMCS TAF 2020/06/05 06:10 UTC NOAA

TAF MMCS 050503Z 0506/0606 00000KT P6SM SCT160
FM051800 13010KT P6SM SKC
BECMG 0601/0602 16015KT

Example: see airport list